Impacts TAF Board INFO
FOR SITUATIONAL AWARENESS. NOT TO BE USED FOR FLIGHT PLANNING PURPOSES.
IDs:

KLAS - Las Vegas/McCarran I, NV, US

Issued at 1732 UTC 23 Feb 2017
Updated at 1828 UTC 23 Feb 2017
Potential Impact None Slight Moderate High
Time1756Z 23/19Z 23/20Z 23/21Z 23/22Z 23/23Z 24/00Z 24/01Z 24/02Z 24/03Z 24/04Z 24/05Z 24/06Z 24/07Z
Type OBS PRVL PRVL PRVL PRVL PRVL PRVL PRVL PRVL PRVL PRVL PRVL PRVL PRVL
VIS 10 >6 >6 >6 >6 >6 >6 >6 >6 >6 >6 >6 >6 >6
CIG -- -- -- -- -- -- -- -- -- -- -- -- -- --
Cover FEW FEW FEW FEW FEW FEW FEW FEW FEW FEW FEW FEW SKC SKC
FltCat VFR VFR VFR VFR VFR VFR VFR VFR VFR VFR VFR VFR VFR VFR
WX -- -- -- -- -- -- -- -- -- -- -- -- -- --
WDir 330 340 340 290 290 290 290 290 290 290 290 290 230 230
WSpd 10 12 12 10 10 10 10 10 10 10 10 10 7 7
WGst 19 20 20 -- -- -- -- -- -- -- -- -- -- --

Raw TAF
KLAS 231732Z 2318/2418 34012G20KT P6SM FEW110
  FM232100 29010KT P6SM FEW110
  FM240600 23007KT P6SM SKC
  FM241600 04005KT P6SM SKC


Raw METAR
KLAS 231756Z 33010G19KT 10SM FEW100 10/M13 A2995 RMK AO2 SLP140 T01001128 10106 20067 51012
KLAS 231656Z 33011KT 10SM FEW100 09/M14 A2995 RMK AO2 SLP139 T00941139
KLAS 231556Z 34013KT 10SM CLR 08/M13 A2994 RMK AO2 SLP136 T00831128

METAR Board
Radar Display
Forecast Discussion

FOR SITUATIONAL AWARENESS. NOT TO BE USED FOR FLIGHT PLANNING PURPOSES.

Page loaded:  18:28 UTC  |   10:28 AM Pacific  |   11:28 AM Mountain  |   12:28 PM Central  |   01:28 PM Eastern

 

ADVISORIES

FORECASTS

FORECASTS

OBSERVATIONS

USER TOOLS

ABOUT US